sensor_id;sensor_type;location;lat;lon;timestamp;pressure;altitude;pressure_sealevel;temperature;humidity
40954;BME280;26686;50.130;8.710;2023-04-04T00:01:15;101321.94;;;4.68;43.89
40954;BME280;26686;50.130;8.710;2023-04-04T00:06:18;101322.84;;;4.67;43.98
40954;BME280;26686;50.130;8.710;2023-04-04T00:11:19;101311.63;;;4.62;43.90
40954;BME280;26686;50.130;8.710;2023-04-04T00:16:22;101317.03;;;4.58;44.42
40954;BME280;26686;50.130;8.710;2023-04-04T00:21:23;101304.75;;;4.57;44.40
40954;BME280;26686;50.130;8.710;2023-04-04T00:26:27;101309.34;;;4.52;44.34
40954;BME280;26686;50.130;8.710;2023-04-04T00:31:29;101311.06;;;4.53;44.37
40954;BME280;26686;50.130;8.710;2023-04-04T00:36:30;101298.09;;;4.47;44.09
40954;BME280;26686;50.130;8.710;2023-04-04T00:41:31;101296.53;;;4.43;43.93
40954;BME280;26686;50.130;8.710;2023-04-04T00:46:33;101294.78;;;4.42;44.06
40954;BME280;26686;50.130;8.710;2023-04-04T00:51:34;101292.34;;;4.37;44.46
40954;BME280;26686;50.130;8.710;2023-04-04T00:56:37;101293.31;;;4.35;44.38
40954;BME280;26686;50.130;8.710;2023-04-04T01:01:39;101296.84;;;4.34;44.55
40954;BME280;26686;50.130;8.710;2023-04-04T01:06:42;101286.41;;;4.31;44.65
40954;BME280;26686;50.130;8.710;2023-04-04T01:11:44;101275.94;;;4.29;44.47
40954;BME280;26686;50.130;8.710;2023-04-04T01:16:47;101288.16;;;4.32;44.35
40954;BME280;26686;50.130;8.710;2023-04-04T01:21:51;101280.72;;;4.19;44.32
40954;BME280;26686;50.130;8.710;2023-04-04T01:26:53;101278.97;;;4.18;44.70
40954;BME280;26686;50.130;8.710;2023-04-04T01:32:09;101285.28;;;4.14;44.69
40954;BME280;26686;50.130;8.710;2023-04-04T01:37:29;101278.53;;;4.07;44.42
40954;BME280;26686;50.130;8.710;2023-04-04T01:42:35;101289.09;;;4.07;44.72
40954;BME280;26686;50.130;8.710;2023-04-04T01:47:39;101268.13;;;4.04;44.62
40954;BME280;26686;50.130;8.710;2023-04-04T01:52:41;101280.34;;;4.05;44.86
40954;BME280;26686;50.130;8.710;2023-04-04T01:57:43;101280.53;;;4.00;45.16
40954;BME280;26686;50.130;8.710;2023-04-04T02:02:44;101276.97;;;4.01;45.06
40954;BME280;26686;50.130;8.710;2023-04-04T02:07:47;101284.03;;;4.01;44.85
40954;BME280;26686;50.130;8.710;2023-04-04T02:12:51;101277.44;;;3.89;45.42
40954;BME280;26686;50.130;8.710;2023-04-04T02:17:53;101275.47;;;3.94;45.18
40954;BME280;26686;50.130;8.710;2023-04-04T02:22:55;101281.03;;;3.86;44.75
40954;BME280;26686;50.130;8.710;2023-04-04T02:27:57;101280.91;;;3.89;45.10
40954;BME280;26686;50.130;8.710;2023-04-04T02:32:58;101274.03;;;3.85;45.04
40954;BME280;26686;50.130;8.710;2023-04-04T02:38:00;101265.56;;;3.77;44.93
40954;BME280;26686;50.130;8.710;2023-04-04T02:43:02;101261.94;;;3.80;44.49
40954;BME280;26686;50.130;8.710;2023-04-04T02:48:04;101262.81;;;3.80;44.82
40954;BME280;26686;50.130;8.710;2023-04-04T02:53:07;101243.22;;;3.64;45.05
40954;BME280;26686;50.130;8.710;2023-04-04T02:58:09;101258.69;;;3.73;44.93
40954;BME280;26686;50.130;8.710;2023-04-04T03:03:10;101239.56;;;3.68;44.81
40954;BME280;26686;50.130;8.710;2023-04-04T03:08:12;101247.59;;;3.65;44.59
40954;BME280;26686;50.130;8.710;2023-04-04T03:13:13;101237.94;;;3.64;44.77
40954;BME280;26686;50.130;8.710;2023-04-04T03:18:14;101239.88;;;3.59;44.90
40954;BME280;26686;50.130;8.710;2023-04-04T03:23:16;101234.72;;;3.56;44.82
40954;BME280;26686;50.130;8.710;2023-04-04T03:28:18;101240.97;;;3.53;45.07
40954;BME280;26686;50.130;8.710;2023-04-04T03:33:19;101226.13;;;3.50;44.79
40954;BME280;26686;50.130;8.710;2023-04-04T03:38:21;101227.75;;;3.54;44.77
40954;BME280;26686;50.130;8.710;2023-04-04T03:43:23;101221.78;;;3.49;44.86
40954;BME280;26686;50.130;8.710;2023-04-04T03:48:24;101215.72;;;3.47;45.00
40954;BME280;26686;50.130;8.710;2023-04-04T03:53:26;101220.97;;;3.47;44.93
40954;BME280;26686;50.130;8.710;2023-04-04T03:58:28;101221.19;;;3.41;45.09
40954;BME280;26686;50.130;8.710;2023-04-04T04:03:31;101216.03;;;3.38;45.12
40954;BME280;26686;50.130;8.710;2023-04-04T04:08:32;101222.38;;;3.32;45.70
40954;BME280;26686;50.130;8.710;2023-04-04T04:13:34;101219.69;;;3.34;45.79
40954;BME280;26686;50.130;8.710;2023-04-04T04:18:38;101218.78;;;3.35;46.16
40954;BME280;26686;50.130;8.710;2023-04-04T04:23:40;101216.25;;;3.32;46.42
40954;BME280;26686;50.130;8.710;2023-04-04T04:28:41;101208.38;;;3.32;45.96
40954;BME280;26686;50.130;8.710;2023-04-04T04:33:43;101221.63;;;3.29;46.05
40954;BME280;26686;50.130;8.710;2023-04-04T04:38:44;101223.38;;;3.28;46.16
40954;BME280;26686;50.130;8.710;2023-04-04T04:43:45;101219.13;;;3.24;45.89
40954;BME280;26686;50.130;8.710;2023-04-04T04:48:47;101218.41;;;3.21;46.28
40954;BME280;26686;50.130;8.710;2023-04-04T04:53:48;101220.88;;;3.25;46.19
40954;BME280;26686;50.130;8.710;2023-04-04T04:58:50;101218.28;;;3.24;46.11
40954;BME280;26686;50.130;8.710;2023-04-04T05:03:51;101229.59;;;3.27;45.85
40954;BME280;26686;50.130;8.710;2023-04-04T05:08:53;101231.28;;;3.28;46.22
40954;BME280;26686;50.130;8.710;2023-04-04T05:13:55;101224.09;;;3.33;46.57
40954;BME280;26686;50.130;8.710;2023-04-04T05:18:57;101227.69;;;3.31;46.31
40954;BME280;26686;50.130;8.710;2023-04-04T05:23:58;101229.47;;;3.30;46.93
40954;BME280;26686;50.130;8.710;2023-04-04T05:29:00;101224.09;;;3.33;47.19
40954;BME280;26686;50.130;8.710;2023-04-04T05:34:01;101226.78;;;3.32;47.60
40954;BME280;26686;50.130;8.710;2023-04-04T05:39:08;101235.47;;;3.34;47.85
40954;BME280;26686;50.130;8.710;2023-04-04T05:44:09;101237.09;;;3.38;48.28
40954;BME280;26686;50.130;8.710;2023-04-04T05:49:11;101238.56;;;3.47;48.12
40954;BME280;26686;50.130;8.710;2023-04-04T05:54:13;101238.50;;;3.48;47.51
40954;BME280;26686;50.130;8.710;2023-04-04T05:59:14;101237.41;;;3.54;47.56
40954;BME280;26686;50.130;8.710;2023-04-04T06:04:16;101242.44;;;3.60;47.42
40954;BME280;26686;50.130;8.710;2023-04-04T06:09:18;101241.97;;;3.74;47.32
40954;BME280;26686;50.130;8.710;2023-04-04T06:14:19;101242.19;;;3.92;45.88
40954;BME280;26686;50.130;8.710;2023-04-04T06:19:21;101250.59;;;4.03;45.77
40954;BME280;26686;50.130;8.710;2023-04-04T06:24:22;101244.97;;;4.12;45.67
40954;BME280;26686;50.130;8.710;2023-04-04T06:29:24;101242.56;;;4.30;45.35
40954;BME280;26686;50.130;8.710;2023-04-04T06:34:26;101251.41;;;4.51;45.04
40954;BME280;26686;50.130;8.710;2023-04-04T06:39:28;101243.31;;;4.55;45.14
40954;BME280;26686;50.130;8.710;2023-04-04T06:44:31;101254.72;;;4.78;44.28
40954;BME280;26686;50.130;8.710;2023-04-04T06:49:33;101257.66;;;4.92;43.28
40954;BME280;26686;50.130;8.710;2023-04-04T06:54:34;101256.75;;;5.14;42.65
40954;BME280;26686;50.130;8.710;2023-04-04T06:59:36;101250.44;;;5.39;42.26
40954;BME280;26686;50.130;8.710;2023-04-04T07:04:37;101260.94;;;5.61;41.34
40954;BME280;26686;50.130;8.710;2023-04-04T07:09:40;101258.50;;;5.77;40.50
40954;BME280;26686;50.130;8.710;2023-04-04T07:14:41;101268.66;;;5.86;40.82
40954;BME280;26686;50.130;8.710;2023-04-04T07:19:42;101266.63;;;6.12;40.97
40954;BME280;26686;50.130;8.710;2023-04-04T07:24:44;101273.94;;;6.26;41.13
40954;BME280;26686;50.130;8.710;2023-04-04T07:29:45;101273.56;;;6.33;40.74
40954;BME280;26686;50.130;8.710;2023-04-04T07:34:47;101270.44;;;6.44;39.07
40954;BME280;26686;50.130;8.710;2023-04-04T07:39:49;101275.72;;;6.63;38.60
40954;BME280;26686;50.130;8.710;2023-04-04T07:44:51;101278.44;;;6.62;39.52
40954;BME280;26686;50.130;8.710;2023-04-04T07:49:52;101264.34;;;6.80;39.01
40954;BME280;26686;50.130;8.710;2023-04-04T07:54:54;101265.53;;;6.92;39.99
40954;BME280;26686;50.130;8.710;2023-04-04T07:59:55;101250.66;;;7.07;38.95
40954;BME280;26686;50.130;8.710;2023-04-04T08:04:57;101259.44;;;7.25;38.35
40954;BME280;26686;50.130;8.710;2023-04-04T08:09:58;101248.03;;;7.42;37.61
40954;BME280;26686;50.130;8.710;2023-04-04T08:15:00;101249.19;;;7.54;37.74
40954;BME280;26686;50.130;8.710;2023-04-04T08:20:02;101247.78;;;7.47;37.66
40954;BME280;26686;50.130;8.710;2023-04-04T08:25:04;101244.50;;;7.59;38.04
40954;BME280;26686;50.130;8.710;2023-04-04T08:30:06;101246.06;;;7.63;36.85
40954;BME280;26686;50.130;8.710;2023-04-04T08:35:09;101246.88;;;7.97;36.84
40954;BME280;26686;50.130;8.710;2023-04-04T08:40:12;101241.03;;;8.24;35.25
40954;BME280;26686;50.130;8.710;2023-04-04T08:45:16;101240.81;;;8.44;34.53
40954;BME280;26686;50.130;8.710;2023-04-04T08:50:20;101243.16;;;8.01;35.15
40954;BME280;26686;50.130;8.710;2023-04-04T08:55:21;101237.56;;;8.39;34.66
40954;BME280;26686;50.130;8.710;2023-04-04T09:00:23;101231.91;;;8.77;33.51
40954;BME280;26686;50.130;8.710;2023-04-04T09:05:25;101225.03;;;9.19;35.13
40954;BME280;26686;50.130;8.710;2023-04-04T09:10:27;101227.03;;;9.30;32.97
40954;BME280;26686;50.130;8.710;2023-04-04T09:15:30;101217.78;;;9.66;31.77
40954;BME280;26686;50.130;8.710;2023-04-04T09:20:37;101225.09;;;9.77;31.27
40954;BME280;26686;50.130;8.710;2023-04-04T09:25:47;101231.59;;;9.73;29.78
40954;BME280;26686;50.130;8.710;2023-04-04T09:31:07;101220.09;;;10.01;29.76
40954;BME280;26686;50.130;8.710;2023-04-04T09:36:11;101215.56;;;10.31;29.16
40954;BME280;26686;50.130;8.710;2023-04-04T09:41:14;101214.31;;;10.78;28.45
40954;BME280;26686;50.130;8.710;2023-04-04T09:46:19;101203.31;;;11.10;29.05
40954;BME280;26686;50.130;8.710;2023-04-04T09:51:21;101198.44;;;11.42;29.23
40954;BME280;26686;50.130;8.710;2023-04-04T09:56:23;101208.47;;;11.77;29.51
40954;BME280;26686;50.130;8.710;2023-04-04T10:01:24;101205.47;;;12.08;28.97
40954;BME280;26686;50.130;8.710;2023-04-04T10:06:26;101207.00;;;12.60;27.42
40954;BME280;26686;50.130;8.710;2023-04-04T10:11:33;101201.59;;;12.97;26.95
40954;BME280;26686;50.130;8.710;2023-04-04T10:16:35;101198.53;;;12.90;27.36
40954;BME280;26686;50.130;8.710;2023-04-04T10:21:39;101202.94;;;15.89;25.26
40954;BME280;26686;50.130;8.710;2023-04-04T10:26:40;101190.63;;;19.46;20.08
40954;BME280;26686;50.130;8.710;2023-04-04T10:31:42;101187.59;;;21.10;18.20
40954;BME280;26686;50.130;8.710;2023-04-04T10:36:53;101203.44;;;19.00;19.50
40954;BME280;26686;50.130;8.710;2023-04-04T10:41:58;101188.34;;;17.88;20.76
40954;BME280;26686;50.130;8.710;2023-04-04T10:52:17;101198.03;;;22.50;17.30
40954;BME280;26686;50.130;8.710;2023-04-04T10:57:18;101181.63;;;25.75;14.54
40954;BME280;26686;50.130;8.710;2023-04-04T11:07:45;101174.31;;;28.05;12.77
40954;BME280;26686;50.130;8.710;2023-04-04T11:13:09;101160.97;;;28.61;12.12
40954;BME280;26686;50.130;8.710;2023-04-04T11:18:14;101145.47;;;29.86;11.72
40954;BME280;26686;50.130;8.710;2023-04-04T11:28:50;101144.09;;;30.56;10.94
40954;BME280;26686;50.130;8.710;2023-04-04T11:34:04;101135.44;;;31.42;10.41
40954;BME280;26686;50.130;8.710;2023-04-04T11:44:32;101125.03;;;31.96;9.78
40954;BME280;26686;50.130;8.710;2023-04-04T11:49:36;101103.19;;;32.18;9.49
40954;BME280;26686;50.130;8.710;2023-04-04T11:54:39;101098.56;;;32.70;10.12
40954;BME280;26686;50.130;8.710;2023-04-04T11:59:42;101096.16;;;32.73;9.42
40954;BME280;26686;50.130;8.710;2023-04-04T12:04:46;101093.59;;;33.06;9.02
40954;BME280;26686;50.130;8.710;2023-04-04T12:09:47;101085.44;;;33.55;9.12
40954;BME280;26686;50.130;8.710;2023-04-04T12:14:49;101086.63;;;33.81;9.20
40954;BME280;26686;50.130;8.710;2023-04-04T12:19:50;101092.47;;;33.63;9.02
40954;BME280;26686;50.130;8.710;2023-04-04T12:24:52;101083.91;;;33.20;8.83
40954;BME280;26686;50.130;8.710;2023-04-04T12:29:55;101067.22;;;32.93;8.86
40954;BME280;26686;50.130;8.710;2023-04-04T12:35:00;101064.41;;;33.49;8.82
40954;BME280;26686;50.130;8.710;2023-04-04T12:40:02;101057.53;;;33.07;9.23
40954;BME280;26686;50.130;8.710;2023-04-04T12:45:05;101063.31;;;32.89;9.04
40954;BME280;26686;50.130;8.710;2023-04-04T12:50:07;101046.19;;;32.19;9.17
40954;BME280;26686;50.130;8.710;2023-04-04T12:55:09;101051.81;;;31.14;10.13
40954;BME280;26686;50.130;8.710;2023-04-04T13:00:11;101051.53;;;28.72;11.48
40954;BME280;26686;50.130;8.710;2023-04-04T13:05:14;101041.84;;;25.47;13.46
40954;BME280;26686;50.130;8.710;2023-04-04T13:10:16;101049.09;;;23.68;14.85
40954;BME280;26686;50.130;8.710;2023-04-04T13:15:20;101035.84;;;22.60;16.45
40954;BME280;26686;50.130;8.710;2023-04-04T13:20:22;101034.41;;;21.80;16.46
40954;BME280;26686;50.130;8.710;2023-04-04T13:25:25;101019.72;;;21.35;17.42
40954;BME280;26686;50.130;8.710;2023-04-04T13:30:27;101005.66;;;20.51;17.46
40954;BME280;26686;50.130;8.710;2023-04-04T13:35:29;101018.00;;;20.12;18.45
40954;BME280;26686;50.130;8.710;2023-04-04T13:40:31;101011.59;;;19.46;21.55
40954;BME280;26686;50.130;8.710;2023-04-04T13:45:33;101005.97;;;18.08;20.04
40954;BME280;26686;50.130;8.710;2023-04-04T13:50:38;100992.88;;;18.13;20.29
40954;BME280;26686;50.130;8.710;2023-04-04T13:55:40;100992.88;;;18.13;20.59
40954;BME280;26686;50.130;8.710;2023-04-04T14:01:01;100976.88;;;17.93;20.14
40954;BME280;26686;50.130;8.710;2023-04-04T14:06:07;100979.34;;;17.59;20.84
40954;BME280;26686;50.130;8.710;2023-04-04T14:11:12;100970.53;;;17.11;21.27
40954;BME280;26686;50.130;8.710;2023-04-04T14:16:13;100960.72;;;16.82;22.48
40954;BME280;26686;50.130;8.710;2023-04-04T14:21:15;100954.59;;;16.52;22.74
40954;BME280;26686;50.130;8.710;2023-04-04T14:26:16;100949.84;;;15.78;23.63
40954;BME280;26686;50.130;8.710;2023-04-04T14:31:18;100957.47;;;15.63;23.69
40954;BME280;26686;50.130;8.710;2023-04-04T14:36:20;100946.63;;;15.24;23.01
40954;BME280;26686;50.130;8.710;2023-04-04T14:41:21;100951.91;;;15.04;23.50
40954;BME280;26686;50.130;8.710;2023-04-04T14:46:23;100945.34;;;14.77;24.28
40954;BME280;26686;50.130;8.710;2023-04-04T14:51:26;100947.69;;;14.49;24.84
40954;BME280;26686;50.130;8.710;2023-04-04T14:56:27;100926.94;;;14.21;24.81
40954;BME280;26686;50.130;8.710;2023-04-04T15:01:29;100929.72;;;13.77;25.86
40954;BME280;26686;50.130;8.710;2023-04-04T15:06:30;100930.16;;;13.82;25.60
40954;BME280;26686;50.130;8.710;2023-04-04T15:11:38;100929.63;;;13.67;24.97
40954;BME280;26686;50.130;8.710;2023-04-04T15:16:40;100924.13;;;13.69;25.29
40954;BME280;26686;50.130;8.710;2023-04-04T15:21:41;100917.53;;;13.40;25.47
40954;BME280;26686;50.130;8.710;2023-04-04T15:26:43;100928.97;;;13.42;25.80
40954;BME280;26686;50.130;8.710;2023-04-04T15:31:44;100916.44;;;13.43;25.62
40954;BME280;26686;50.130;8.710;2023-04-04T15:36:47;100917.06;;;13.24;26.04
40954;BME280;26686;50.130;8.710;2023-04-04T15:41:50;100909.31;;;13.09;26.48
40954;BME280;26686;50.130;8.710;2023-04-04T15:46:51;100907.63;;;13.08;26.76
40954;BME280;26686;50.130;8.710;2023-04-04T15:51:53;100905.69;;;13.11;26.73
40954;BME280;26686;50.130;8.710;2023-04-04T15:56:54;100894.53;;;12.94;26.72
40954;BME280;26686;50.130;8.710;2023-04-04T16:01:56;100898.16;;;12.82;27.21
40954;BME280;26686;50.130;8.710;2023-04-04T16:06:58;100891.03;;;12.60;27.47
40954;BME280;26686;50.130;8.710;2023-04-04T16:12:00;100892.94;;;12.58;27.76
40954;BME280;26686;50.130;8.710;2023-04-04T16:17:02;100895.03;;;12.54;26.70
40954;BME280;26686;50.130;8.710;2023-04-04T16:22:03;100895.75;;;12.56;27.61
40954;BME280;26686;50.130;8.710;2023-04-04T16:27:06;100887.00;;;12.54;28.24
40954;BME280;26686;50.130;8.710;2023-04-04T16:32:07;100886.38;;;12.39;27.81
40954;BME280;26686;50.130;8.710;2023-04-04T16:37:09;100884.31;;;12.43;28.60
40954;BME280;26686;50.130;8.710;2023-04-04T16:42:12;100882.38;;;12.22;28.04
40954;BME280;26686;50.130;8.710;2023-04-04T16:47:13;100878.97;;;12.20;28.16
40954;BME280;26686;50.130;8.710;2023-04-04T16:52:15;100886.97;;;12.20;28.63
40954;BME280;26686;50.130;8.710;2023-04-04T16:57:16;100864.84;;;11.95;28.83
40954;BME280;26686;50.130;8.710;2023-04-04T17:02:17;100870.38;;;11.92;29.40
40954;BME280;26686;50.130;8.710;2023-04-04T17:07:19;100874.94;;;11.79;29.26
40954;BME280;26686;50.130;8.710;2023-04-04T17:12:21;100873.47;;;11.75;29.35
40954;BME280;26686;50.130;8.710;2023-04-04T17:17:22;100876.31;;;11.60;29.56
40954;BME280;26686;50.130;8.710;2023-04-04T17:22:23;100881.44;;;11.39;29.90
40954;BME280;26686;50.130;8.710;2023-04-04T17:27:25;100870.19;;;11.23;30.69
40954;BME280;26686;50.130;8.710;2023-04-04T17:32:27;100877.94;;;11.02;31.10
40954;BME280;26686;50.130;8.710;2023-04-04T17:37:28;100886.00;;;10.89;31.14
40954;BME280;26686;50.130;8.710;2023-04-04T17:42:31;100882.38;;;10.77;31.90
40954;BME280;26686;50.130;8.710;2023-04-04T17:47:32;100885.16;;;10.75;31.92
40954;BME280;26686;50.130;8.710;2023-04-04T17:52:34;100885.16;;;10.63;31.96
40954;BME280;26686;50.130;8.710;2023-04-04T17:57:35;100884.88;;;10.54;32.08
40954;BME280;26686;50.130;8.710;2023-04-04T18:02:37;100900.63;;;10.57;32.31
40954;BME280;26686;50.130;8.710;2023-04-04T18:07:39;100877.97;;;10.39;32.93
40954;BME280;26686;50.130;8.710;2023-04-04T18:12:40;100900.59;;;10.32;32.78
40954;BME280;26686;50.130;8.710;2023-04-04T18:17:42;100901.56;;;10.18;32.98
40954;BME280;26686;50.130;8.710;2023-04-04T18:22:44;100902.16;;;10.08;33.73
40954;BME280;26686;50.130;8.710;2023-04-04T18:27:46;100896.59;;;9.86;34.05
40954;BME280;26686;50.130;8.710;2023-04-04T18:32:49;100911.25;;;9.79;34.55
40954;BME280;26686;50.130;8.710;2023-04-04T18:37:50;100912.53;;;9.73;34.64
40954;BME280;26686;50.130;8.710;2023-04-04T18:42:52;100918.25;;;9.67;34.94
40954;BME280;26686;50.130;8.710;2023-04-04T18:47:53;100919.34;;;9.50;35.44
40954;BME280;26686;50.130;8.710;2023-04-04T18:52:55;100918.81;;;9.45;35.63
40954;BME280;26686;50.130;8.710;2023-04-04T18:57:56;100929.16;;;9.35;35.77
40954;BME280;26686;50.130;8.710;2023-04-04T19:02:58;100940.28;;;9.27;36.47
40954;BME280;26686;50.130;8.710;2023-04-04T19:08:00;100933.56;;;9.22;36.73
40954;BME280;26686;50.130;8.710;2023-04-04T19:13:01;100937.38;;;9.17;36.47
40954;BME280;26686;50.130;8.710;2023-04-04T19:18:03;100936.28;;;9.07;37.10
40954;BME280;26686;50.130;8.710;2023-04-04T19:23:05;100928.97;;;8.96;36.93
40954;BME280;26686;50.130;8.710;2023-04-04T19:28:08;100939.91;;;8.92;36.91
40954;BME280;26686;50.130;8.710;2023-04-04T19:33:11;100933.06;;;8.88;36.94
40954;BME280;26686;50.130;8.710;2023-04-04T19:43:21;100927.75;;;8.73;37.10
40954;BME280;26686;50.130;8.710;2023-04-04T19:48:46;100925.56;;;8.65;37.26
40954;BME280;26686;50.130;8.710;2023-04-04T19:53:52;100903.47;;;8.51;37.34
40954;BME280;26686;50.130;8.710;2023-04-04T19:58:59;100928.22;;;8.51;38.12
40954;BME280;26686;50.130;8.710;2023-04-04T20:09:31;100932.88;;;8.31;38.38
40954;BME280;26686;50.130;8.710;2023-04-04T20:14:35;100921.06;;;8.23;38.41
40954;BME280;26686;50.130;8.710;2023-04-04T20:19:36;100929.13;;;8.21;38.78
40954;BME280;26686;50.130;8.710;2023-04-04T20:24:38;100920.84;;;8.11;38.79
40954;BME280;26686;50.130;8.710;2023-04-04T20:29:41;100937.28;;;8.02;38.98
40954;BME280;26686;50.130;8.710;2023-04-04T20:40:31;100927.25;;;7.93;39.51
40954;BME280;26686;50.130;8.710;2023-04-04T20:45:37;100929.66;;;7.82;39.60
40954;BME280;26686;50.130;8.710;2023-04-04T20:50:42;100922.50;;;7.68;40.02
40954;BME280;26686;50.130;8.710;2023-04-04T20:55:45;100943.63;;;7.69;39.89
40954;BME280;26686;50.130;8.710;2023-04-04T21:00:46;100937.38;;;7.70;40.38
40954;BME280;26686;50.130;8.710;2023-04-04T21:05:48;100942.69;;;7.70;40.13
40954;BME280;26686;50.130;8.710;2023-04-04T21:10:52;100929.00;;;7.62;40.45
40954;BME280;26686;50.130;8.710;2023-04-04T21:15:58;100920.31;;;7.60;40.36
40954;BME280;26686;50.130;8.710;2023-04-04T21:26:30;100938.88;;;7.74;40.45
40954;BME280;26686;50.130;8.710;2023-04-04T21:31:35;100936.41;;;7.71;40.83
40954;BME280;26686;50.130;8.710;2023-04-04T21:36:37;100945.16;;;7.73;40.70
40954;BME280;26686;50.130;8.710;2023-04-04T21:41:39;100944.38;;;7.71;41.09
40954;BME280;26686;50.130;8.710;2023-04-04T21:46:41;100939.16;;;7.70;40.88
40954;BME280;26686;50.130;8.710;2023-04-04T21:51:43;100937.38;;;7.70;41.01
40954;BME280;26686;50.130;8.710;2023-04-04T21:56:45;100932.25;;;7.67;41.16
40954;BME280;26686;50.130;8.710;2023-04-04T22:01:48;100925.00;;;7.55;41.12
40954;BME280;26686;50.130;8.710;2023-04-04T22:06:50;100938.75;;;7.61;41.32
40954;BME280;26686;50.130;8.710;2023-04-04T22:11:51;100934.00;;;7.52;41.42
40954;BME280;26686;50.130;8.710;2023-04-04T22:16:54;100942.78;;;7.53;41.56
40954;BME280;26686;50.130;8.710;2023-04-04T22:21:58;100947.31;;;7.51;41.36
40954;BME280;26686;50.130;8.710;2023-04-04T22:27:00;100940.66;;;7.43;41.50
40954;BME280;26686;50.130;8.710;2023-04-04T22:32:04;100933.63;;;7.42;41.87
40954;BME280;26686;50.130;8.710;2023-04-04T22:37:05;100926.88;;;7.37;41.67
40954;BME280;26686;50.130;8.710;2023-04-04T22:42:06;100934.84;;;7.37;41.51
40954;BME280;26686;50.130;8.710;2023-04-04T22:47:08;100923.56;;;7.33;41.84
40954;BME280;26686;50.130;8.710;2023-04-04T22:52:09;100925.38;;;7.33;42.28
40954;BME280;26686;50.130;8.710;2023-04-04T22:57:13;100920.34;;;7.28;42.06
40954;BME280;26686;50.130;8.710;2023-04-04T23:02:14;100915.34;;;7.22;42.39
40954;BME280;26686;50.130;8.710;2023-04-04T23:07:16;100927.00;;;7.19;42.81
40954;BME280;26686;50.130;8.710;2023-04-04T23:12:17;100921.44;;;7.08;43.04
40954;BME280;26686;50.130;8.710;2023-04-04T23:17:18;100919.78;;;7.05;43.22
40954;BME280;26686;50.130;8.710;2023-04-04T23:22:20;100913.91;;;7.00;43.24
40954;BME280;26686;50.130;8.710;2023-04-04T23:27:21;100922.19;;;6.94;43.76
40954;BME280;26686;50.130;8.710;2023-04-04T23:32:23;100919.72;;;6.91;43.58
40954;BME280;26686;50.130;8.710;2023-04-04T23:37:24;100916.63;;;6.83;43.91
40954;BME280;26686;50.130;8.710;2023-04-04T23:42:26;100912.13;;;6.85;43.75
40954;BME280;26686;50.130;8.710;2023-04-04T23:47:27;100905.59;;;6.75;44.22
40954;BME280;26686;50.130;8.710;2023-04-04T23:52:29;100905.78;;;6.71;44.56
40954;BME280;26686;50.130;8.710;2023-04-04T23:57:30;100895.34;;;6.68;44.35
